• Join FlightAware (Why Join?)
  • Login
  • US Flag 
 
08:41PM EST


 

Airport Tracker/Info


-or-


 

Live Flight TrackerFlight Track Log ✈ LXJ342 ✈ 01-Jul-2013 ✈ KAIZ - KAPA

Flight Track Log - Related Links

Times and Time Zones

All times are in EDT time to prevent confusion due to time zone crossing. See the LXJ342 flight status page for this flight to view local times or setup timezone preferences in your user account.

Time Position Orientation Groundspeed Altitude Reporting Facility
EDT Latitude Longitude Course Direction KTS MPH feet Rate Location/Type
05:12PM 38.1889 -92.5400 North 231 266 6,500  Level Kansas City Center
05:13PM 38.2778 -92.5839 339° North 283 326 9,600 3,180 Climbing Kansas City Center
05:14PM 38.3442 -92.6264 333° Northwest 273 314 13,100 3,060 Climbing Kansas City Center
05:15PM 38.4056 -92.6803 325° Northwest 268 308 16,000 2,700 Climbing Kansas City Center
05:16PM 38.4475 -92.7706 301° West 291 335 18,800 2,640 Climbing Kansas City Center
05:17PM 38.4658 -92.8822 282° West 321 369 21,500 2,220 Climbing Kansas City Center
05:18PM 38.4611 -93.0072 267° West 347 399 23,400 1,980 Climbing Kansas City Center
05:19PM 38.4558 -93.1781 268° West 396 456 25,700 1,200 Climbing Kansas City Center
05:20PM 38.4500 -93.3292 267° West 417 480 26,000 900 Climbing Kansas City Center
05:21PM 38.4678 -93.4892 278° West 449 517 27,600 2,100 Climbing Kansas City Center
05:22PM 38.4783 -93.6411 275° West 435 501 30,400 2,040 Climbing Kansas City Center
05:23PM 38.4900 -93.7889 276° West 424 488 31,900 1,500 Climbing Kansas City Center
05:24PM 38.5031 -93.9603 276° West 430 495 33,600 1,500 Climbing Kansas City Center
05:25PM 38.5133 -94.1067 275° West 432 497 35,000 1,440 Climbing Kansas City Center
05:26PM 38.5256 -94.2739 275° West 426 490 36,600 1,320 Climbing Kansas City Center
05:27PM 38.5353 -94.4128 275° West 414 476 37,800 840 Climbing Kansas City Center
05:29PM 38.5464 -94.5767 275° West 413 475 38,400 600 Climbing Kansas City Center
05:30PM 38.5569 -94.7214 275° West 422 486 39,100 720 Climbing Kansas City Center
05:31PM 38.5656 -94.8636 274° West 421 484 40,000 420 Climbing Kansas City Center
05:32PM 38.5772 -95.0306 275° West 420 483 40,000  Level Kansas City Center
05:33PM 38.5867 -95.1811 275° West 436 502 40,000  Level Kansas City Center
05:34PM 38.5986 -95.3586 275° West 445 512 40,000  Level Kansas City Center
05:35PM 38.6081 -95.5136 275° West 452 520 40,000  Level Kansas City Center
05:36PM 38.6194 -95.6950 275° West 456 525 40,000  Level Kansas City Center
05:37PM 38.6292 -95.8514 275° West 460 529 40,000  Level Kansas City Center
05:38PM 38.6378 -96.0078 274° West 460 529 40,000  Level Kansas City Center
05:39PM 38.6472 -96.1878 274° West 454 522 40,000  Level Kansas City Center
05:40PM 38.6556 -96.3433 274° West 457 526 40,000  Level Kansas City Center
05:41PM 38.6650 -96.5250 274° West 457 526 40,000  Level Kansas City Center
05:42PM 38.6728 -96.6819 274° West 461 531 40,000  Level Kansas City Center
05:43PM 38.6811 -96.8681 273° West 463 533 40,000  Level Kansas City Center
05:44PM 38.6897 -97.0322 274° West 464 534 40,000  Level Kansas City Center
05:45PM 38.6972 -97.1953 273° West 462 532 40,000  Level Kansas City Center
05:46PM 38.7050 -97.3583 274° West 461 531 40,000  Level Kansas City Center
05:47PM 38.7139 -97.5425 274° West 454 522 40,000  Level Kansas City Center
05:48PM 38.7197 -97.6975 273° West 452 520 40,000  Level Kansas City Center
05:49PM 38.7275 -97.8742 273° West 461 531 40,000  Level Kansas City Center
05:50PM 38.7339 -98.0353 273° West 457 526 40,000  Level Kansas City Center
05:51PM 38.7403 -98.1942 273° West 451 519 40,000  Level Kansas City Center
05:52PM 38.7458 -98.3542 273° West 452 520 40,000  Level Kansas City Center
05:53PM 38.7511 -98.5156 272° West 454 522 40,000  Level Kansas City Center
05:54PM 38.7583 -98.7128 273° West 454 522 40,000  Level Kansas City Center
05:55PM 38.7639 -98.8692 273° West 454 522 40,000  Level Kansas City Center
05:56PM 38.7694 -99.0319 273° West 457 526 40,000  Level Kansas City Center
05:57PM 38.7731 -99.1931 272° West 454 522 40,000  Level Kansas City Center
05:58PM 38.7783 -99.3533 272° West 454 522 40,000  Level Kansas City Center
06:00PM 38.7828 -99.5150 272° West 454 522 40,000  Level Kansas City Center
06:02PM 38.7908 -99.8742 272° West 448 516 40,000  Level Denver Center
06:03PM 38.7953 -100.0283 272° West 449 517 40,000  Level Kansas City Center
06:04PM 38.7942 -100.2044 270° West 448 516 40,000  Level Denver Center
06:05PM 38.7836 -100.3850 266° West 457 526 40,000  Level Denver Center
06:06PM 38.7742 -100.5369 265° West 453 521 40,000  Level Denver Center
06:07PM 38.7625 -100.7172 265° West 456 525 40,000  Level Denver Center
06:08PM 38.7514 -100.8739 265° West 462 532 40,000  Level Denver Center
06:09PM 38.7417 -101.0294 265° West 461 531 40,000 -60 Level Denver Center
06:10PM 38.7289 -101.2078 265° West 455 524 39,900 -540 Descending Denver Center
06:11PM 38.7175 -101.3650 265° West 464 534 39,000 -1,080 Descending Denver Center
06:12PM 38.7050 -101.5406 265° West 447 514 37,700 -1,380 Descending Denver Center
06:13PM 38.6939 -101.6906 265° West 445 512 36,200 -1,500 Descending Denver Center
06:14PM 38.6806 -101.8667 265° West 447 514 34,600 -1,500 Descending Denver Center
06:15PM 38.6686 -102.0186 264° West 450 518 33,100 -1,320 Descending Denver Center
06:16PM 38.6550 -102.1956 264° West 450 518 32,000 -540 Descending Denver Center
06:17PM 38.6431 -102.3436 264° West 442 509 32,000  Level Denver Center
06:18PM 38.6283 -102.5192 264° West 445 512 32,000  Level Denver Center
06:19PM 38.6147 -102.6981 264° West 452 520 32,000 -600 Level Denver Center
06:20PM 38.5983 -102.8811 264° West 453 521 30,800 -1,020 Descending Denver Center
06:21PM 38.5856 -103.0308 264° West 444 511 29,900 -960 Descending Denver Center
06:23PM 38.5711 -103.2025 264° West 435 501 28,700 -1,140 Descending Denver Center
06:24PM 38.5547 -103.3889 264° West 425 489 27,400 -1,140 Descending Denver Center
06:25PM 38.5869 -103.5139 288° West 388 447 26,400 -1,020 Descending Denver Center
06:26PM 38.6561 -103.6039 315° West 372 428 25,400 -1,260 Descending Denver Center
06:27PM 38.7361 -103.7094 314° West 370 426 23,900 -1,680 Descending Denver Center
06:28PM 38.8047 -103.7983 315° West 368 423 22,000 -1,980 Descending Denver Center
06:29PM 38.8797 -103.8967 314° West 351 404 19,900 -1,920 Descending Denver Center
06:30PM 38.9453 -103.9839 314° West 347 399 18,100 -1,800 Descending Denver Center
06:31PM 39.0097 -104.0694 314° West 338 389 16,300 -1,020 Descending Denver Center
06:32PM 39.0431 -104.1806 291° West 320 368 16,000 -180 Descending Denver Center
06:33PM 39.0728 -104.3081 287° West 331 381 16,000 -600 Level Denver Center
06:34PM 39.0972 -104.4169 286° West 332 382 14,800 -960 Descending Denver Center
06:35PM 39.1231 -104.5331 286° West 315 362 14,100 -720 Descending Denver Center
06:36PM 39.1464 -104.6378 286° West 310 357 13,400 -960 Descending Denver Center
06:37PM 39.1697 -104.7392 287° West 299 344 12,200 -1,500 Descending Denver Center
06:38PM 39.2281 -104.8122 316° Northwest 277 319 10,400 -1,080 Descending Denver Center
06:39PM 39.2919 -104.8672 326° Northwest 274 315 10,000 -300 Descending Denver Center
06:40PM 39.3597 -104.8894 346° North 261 300 9,800 -1,020 Descending Denver Center
06:42PM 39.4667 -104.8500 16° North 223 257 7,500 -1,080 Descending Denver TRACON
06:43PM 39.4925 -104.8489 North 165 190 7,400 -720 Descending Denver Center
06:44PM 39.5317 -104.8489 360° North 145 167 6,300 -840 Descending Denver Center
06:45PM 39.5631 -104.8497 359° North 134 154 5,800 -540 Descending Denver Center
06:47PM 39.5667 -104.8333 North  Level FlightAware Approximate
06:54PM 39.5701 -104.8493 North  Level Estimated